Arvada, CO (80002)

3:03 AM MDT on August 20, 2014 (GMT -0600)
Hoyt Ct | Change Station
CLOSE
Current Station
Personal Weather Station
Location: Arvada, CO
Elevation: 5512 ft
Nearby Weather Stations

Elev 5512 ft 39.82 °N, 105.10 °W | Updated 1 minute ago

Clear
Clear
61.3 °F
Feels Like 61.3 °F
N
0.0
Wind Variable Wind from ENE
Gusts 0.0 mph

Today
High -- | Low -- °F
--% Chance of Precip.
Yesterday
High -- | Low -- °F
Precip. -- in
6:17 AM 7:49 PM
Waning Crescent, 23% visible
Pressure 29.93 in
Visibility 10.0 miles
Clouds Clear
Dew Point 50 °F
Humidity 65%
Rainfall 0.00 in
Snow Depth Not available.
UV 0 out of 12
Pollen 9.60 out of 12
PM2.5 Good
Flu Activity Not available.
METAR KBJC 200854Z AUTO 27003KT 10SM CLR 18/10 A2993 RMK AO2

More Conditions Fewer Conditions

Pressure 29.93 in
Visibility 10.0 miles
Clouds Clear
Dew Point 50 °F
Humidity 65%
Rainfall 0.00 in
Snow Depth Not available.
UV 0 out of 12
Pollen 9.60 out of 12
PM2.5 Good
Flu Activity Not available.
METAR KBJC 200854Z AUTO 27003KT 10SM CLR 18/10 A2993 RMK AO2

More Conditions Fewer Conditions

10-Day Weather Forecast

Almanac

Astronomy

Aug. 20, 2014 Rise Set
Actual Time 6:17 AM MDT 7:49 PM MDT
Civil Twilight 5:48 AM MDT 8:18 PM MDT
Nautical Twilight 5:14 AM MDT 8:52 PM MDT
Astronomical Twilight 4:37 AM MDT 9:28 PM MDT
Moon 1:59 AM MDT 4:36 PM MDT
Length of Visible Light 14h 29m
Length of Day
13h 32m
Tomorrow will be 2m 24s shorter.
Waning Crescent, 23% of the Moon is Illuminated
Today
Waning Crescent
Aug 25
New
Sep 2
First Quarter
Sep 8
Full
Sep 15
Last Quarter

Today's Extremes

State Highs State Lows

Community

WunderPhotos

Upload Photos

1,745,604 photos uploaded!

Nearby

Air Quality

  Air Quality AQ Index Pollutant
Yesterday Good
PM10
Yesterday Good
OZONE
Current Good
PM2.5
Wednesday Moderate
OZONE
Wednesday Good
PM2.5

Snow Depth

Station Depth Elevation
Niwot 0 in 9910 ft
University Camp 0 in 10300 ft
Echo Lake 0 in 10600 ft
Berthoud Summit 1 in 11300 ft
Copeland Lake 0 in 8600 ft

Earthquake Activity

City Distance Mag. Time & Date
No recent earthquake activity has been reported nearby.
Minimum magnitude displayed is 2.5.

Coastal Water Temperatures

Place Temperature
No Stations Reporting

Nearby Weather Stations